createdAt,value
2023-01-05T00:01:50.835Z,1.67
2023-01-05T00:04:19.542Z,1.75
2023-01-05T00:06:47.608Z,1.48
2023-01-05T00:09:18.150Z,2.50
2023-01-05T00:12:04.298Z,2.08
2023-01-05T00:14:52.787Z,1.80
2023-01-05T00:17:51.531Z,1.98
2023-01-05T00:20:38.952Z,1.65
2023-01-05T00:23:10.041Z,1.25
2023-01-05T00:25:40.320Z,1.42
2023-01-05T00:28:08.925Z,2.00
2023-01-05T00:30:42.169Z,1.67
2023-01-05T00:33:11.508Z,1.23
2023-01-05T00:35:40.207Z,1.58
2023-01-05T00:38:09.171Z,2.30
2023-01-05T00:40:38.152Z,1.70
2023-01-05T00:43:06.542Z,1.38
2023-01-05T00:45:34.935Z,0.85
2023-01-05T00:48:04.782Z,1.17
2023-01-05T00:50:33.126Z,2.25
2023-01-05T00:53:02.224Z,1.27
2023-01-05T00:55:30.171Z,1.23
2023-01-05T00:57:58.104Z,1.27
2023-01-05T01:00:26.370Z,1.33
2023-01-05T01:02:54.445Z,0.60
2023-01-05T01:05:24.295Z,1.00
2023-01-05T01:07:52.363Z,1.08
2023-01-05T01:10:20.450Z,0.90
2023-01-05T01:12:48.572Z,1.27
2023-01-05T01:15:16.817Z,1.50
2023-01-05T01:17:44.944Z,1.58
2023-01-05T01:20:14.077Z,0.75
2023-01-05T01:22:43.455Z,0.70
2023-01-05T01:25:11.725Z,1.02
2023-01-05T01:27:40.039Z,1.55
2023-01-05T01:30:09.520Z,0.73
2023-01-05T01:32:39.447Z,0.90
2023-01-05T01:35:08.757Z,0.68
2023-01-05T01:37:37.216Z,0.98
2023-01-05T01:40:08.065Z,0.35
2023-01-05T01:42:36.738Z,0.70
2023-01-05T01:45:18.588Z,0.93
2023-01-05T01:47:50.587Z,1.70
2023-01-05T01:50:23.434Z,0.95
2023-01-05T01:52:54.162Z,1.08
2023-01-05T01:55:24.260Z,1.80
2023-01-05T01:57:53.887Z,1.25
2023-01-05T02:00:22.065Z,1.55
2023-01-05T02:02:55.485Z,1.20
2023-01-05T02:05:27.591Z,1.10
2023-01-05T02:07:57.032Z,0.80
2023-01-05T02:10:46.834Z,0.82
2023-01-05T02:13:31.567Z,0.80
2023-01-05T02:16:07.496Z,1.17
2023-01-05T02:19:00.150Z,1.17
2023-01-05T02:21:39.553Z,1.90
2023-01-05T02:24:49.071Z,0.73
2023-01-05T02:27:47.001Z,2.42
2023-01-05T02:31:00.642Z,0.60
2023-01-05T02:33:43.211Z,0.30
2023-01-05T02:36:23.583Z,0.57
2023-01-05T02:39:02.325Z,0.30
2023-01-05T02:41:35.469Z,0.40
2023-01-05T02:46:33.470Z,1.50
2023-01-05T02:49:05.116Z,0.50
2023-01-05T02:51:40.375Z,0.30
2023-01-05T02:54:14.163Z,0.40
2023-01-05T02:56:46.429Z,0.68
2023-01-05T02:59:19.103Z,1.45
2023-01-05T03:01:52.380Z,0.68
2023-01-05T03:04:23.787Z,0.57
2023-01-05T03:06:56.379Z,0.40
2023-01-05T03:09:28.724Z,0.85
2023-01-05T03:12:19.622Z,0.55
2023-01-05T03:14:51.856Z,0.98
2023-01-05T03:17:27.111Z,0.63
2023-01-05T03:20:00.789Z,0.22
2023-01-05T03:22:49.367Z,0.55
2023-01-05T03:25:38.718Z,0.65
2023-01-05T03:28:30.961Z,0.65
2023-01-05T03:31:22.070Z,0.70
2023-01-05T03:34:15.702Z,1.02
2023-01-05T03:39:16.416Z,1.13
2023-01-05T03:41:44.955Z,0.65
2023-01-05T03:44:13.221Z,1.77
2023-01-05T03:46:41.930Z,1.50
2023-01-05T03:49:11.447Z,0.82
2023-01-05T03:51:41.941Z,0.43
2023-01-05T03:54:11.881Z,0.25
2023-01-05T03:56:39.707Z,0.60
2023-01-05T03:59:07.747Z,0.65
2023-01-05T04:01:36.146Z,1.33
2023-01-05T04:04:06.196Z,0.60
2023-01-05T04:06:35.805Z,0.77
2023-01-05T04:09:05.216Z,0.50
2023-01-05T04:11:33.315Z,1.17
2023-01-05T04:14:01.548Z,1.48
2023-01-05T04:16:29.900Z,4.43
2023-01-05T04:18:58.075Z,6.50
2023-01-05T04:21:26.512Z,6.13
2023-01-05T04:23:56.011Z,7.70
2023-01-05T04:26:24.378Z,5.13
2023-01-05T04:28:52.233Z,5.88
2023-01-05T04:31:20.428Z,8.65
2023-01-05T04:33:48.444Z,7.30
2023-01-05T04:36:16.353Z,7.65
2023-01-05T04:38:44.412Z,6.57
2023-01-05T04:41:17.708Z,8.20
2023-01-05T04:43:45.822Z,5.57
2023-01-05T04:46:13.815Z,10.85
2023-01-05T04:48:41.781Z,11.65
2023-01-05T04:51:09.773Z,7.38
2023-01-05T04:53:37.837Z,5.85
2023-01-05T04:56:06.524Z,10.93
2023-01-05T04:58:35.816Z,7.63
2023-01-05T05:01:03.977Z,10.02
2023-01-05T05:03:33.606Z,8.48
2023-01-05T05:06:02.065Z,10.40
2023-01-05T05:08:30.182Z,10.02
2023-01-05T05:10:58.161Z,7.75
2023-01-05T05:13:26.370Z,10.55
2023-01-05T05:15:56.015Z,4.55
2023-01-05T05:18:24.584Z,7.70
2023-01-05T05:20:54.219Z,10.05
2023-01-05T05:23:22.241Z,6.63
2023-01-05T05:25:52.472Z,6.60
2023-01-05T05:28:20.840Z,5.90
2023-01-05T05:30:50.671Z,6.22
2023-01-05T05:33:19.994Z,10.45
2023-01-05T05:35:48.200Z,10.50
2023-01-05T05:38:16.458Z,7.05
2023-01-05T05:40:44.713Z,7.88
2023-01-05T05:43:12.835Z,5.35
2023-01-05T05:45:43.655Z,9.85
2023-01-05T05:48:16.183Z,6.10
2023-01-05T05:50:46.103Z,8.88
2023-01-05T05:53:14.292Z,9.00
2023-01-05T05:55:42.339Z,7.53
2023-01-05T05:58:10.517Z,10.77
2023-01-05T06:00:38.535Z,6.55
2023-01-05T06:03:06.943Z,9.80
2023-01-05T06:05:35.677Z,7.80
2023-01-05T06:08:05.372Z,9.73
2023-01-05T06:10:33.426Z,11.63
2023-01-05T06:13:01.418Z,11.65
2023-01-05T06:15:29.419Z,7.63
2023-01-05T06:17:57.749Z,6.85
2023-01-05T06:20:26.120Z,7.80
2023-01-05T06:22:55.822Z,9.35
2023-01-05T06:25:25.464Z,12.15
2023-01-05T06:27:53.656Z,14.15
2023-01-05T06:30:22.709Z,6.40
2023-01-05T06:32:51.710Z,7.95
2023-01-05T06:35:21.119Z,14.15
2023-01-05T06:37:51.868Z,9.98
2023-01-05T06:40:19.935Z,16.98
2023-01-05T06:42:49.933Z,16.75
2023-01-05T06:45:17.945Z,9.95
2023-01-05T06:47:46.198Z,9.65
2023-01-05T06:50:14.689Z,14.05
2023-01-05T06:52:45.283Z,8.55
2023-01-05T06:55:16.045Z,14.18
2023-01-05T06:57:44.437Z,10.65
2023-01-05T07:00:16.136Z,7.65
2023-01-05T07:02:44.987Z,11.63
2023-01-05T07:05:13.558Z,7.45
2023-01-05T07:07:43.719Z,12.20
2023-01-05T07:10:12.018Z,6.20
2023-01-05T07:12:40.301Z,7.60
2023-01-05T07:15:09.299Z,9.25
2023-01-05T07:17:39.069Z,11.55
2023-01-05T07:20:08.686Z,8.40
2023-01-05T07:22:36.944Z,9.38
2023-01-05T07:25:05.389Z,7.22
2023-01-05T07:27:34.145Z,7.90
2023-01-05T07:30:03.836Z,6.30
2023-01-05T07:32:32.043Z,9.07
2023-01-05T07:35:01.644Z,8.48
2023-01-05T07:37:29.988Z,7.13
2023-01-05T07:39:58.240Z,9.20
2023-01-05T07:42:26.865Z,7.15
2023-01-05T07:44:55.241Z,11.95
2023-01-05T07:47:23.571Z,10.20
2023-01-05T07:49:52.003Z,12.45
2023-01-05T07:52:21.808Z,7.07
2023-01-05T07:54:50.318Z,7.38
2023-01-05T07:57:18.545Z,9.00
2023-01-05T07:59:47.005Z,11.82
2023-01-05T08:02:15.604Z,11.00
2023-01-05T08:04:44.524Z,9.00
2023-01-05T08:07:14.895Z,8.65
2023-01-05T08:10:16.563Z,8.95
2023-01-05T08:12:58.776Z,6.43
2023-01-05T08:15:27.525Z,6.40
2023-01-05T08:17:56.088Z,14.38
2023-01-05T08:20:24.877Z,10.75
2023-01-05T08:22:53.781Z,9.85
2023-01-05T08:25:23.429Z,10.43
2023-01-05T08:27:51.890Z,5.53
2023-01-05T08:30:20.848Z,6.10
2023-01-05T08:32:49.888Z,9.23
2023-01-05T08:35:18.354Z,8.27
2023-01-05T08:37:46.699Z,7.93
2023-01-05T08:40:15.041Z,5.10
2023-01-05T08:42:48.107Z,8.57
2023-01-05T08:47:44.919Z,11.73
2023-01-05T08:50:13.703Z,13.48
2023-01-05T08:52:42.475Z,8.50
2023-01-05T08:55:10.935Z,7.25
2023-01-05T08:57:39.222Z,6.60
2023-01-05T09:00:10.609Z,14.05
2023-01-05T09:02:39.562Z,5.68
2023-01-05T09:05:08.494Z,7.03
2023-01-05T09:07:37.772Z,14.25
2023-01-05T09:10:07.100Z,9.30
2023-01-05T09:12:36.689Z,11.85
2023-01-05T09:15:05.445Z,7.20
2023-01-05T09:17:36.179Z,6.28
2023-01-05T09:20:04.897Z,9.88
2023-01-05T09:22:36.155Z,11.07
2023-01-05T09:25:04.498Z,13.02
2023-01-05T09:27:33.171Z,6.88
2023-01-05T09:30:01.794Z,7.35
2023-01-05T09:32:30.103Z,10.57
2023-01-05T09:34:59.667Z,10.77
2023-01-05T09:37:28.000Z,9.27
2023-01-05T09:39:56.405Z,14.48
2023-01-05T09:42:27.459Z,12.68
2023-01-05T09:44:59.284Z,8.63
2023-01-05T09:47:31.842Z,10.93
2023-01-05T09:50:01.872Z,13.73
2023-01-05T09:52:35.988Z,11.85
2023-01-05T09:55:12.434Z,8.48
2023-01-05T09:57:42.208Z,8.60
2023-01-05T10:00:18.192Z,9.95
2023-01-05T10:02:52.048Z,13.32
2023-01-05T10:05:23.910Z,12.40
2023-01-05T10:07:55.281Z,10.65
2023-01-05T10:10:33.586Z,13.13
2023-01-05T10:13:03.300Z,11.60
2023-01-05T10:15:37.585Z,9.05
2023-01-05T10:18:12.473Z,10.05
2023-01-05T10:20:55.166Z,7.80
2023-01-05T10:23:37.093Z,14.13
2023-01-05T10:26:13.787Z,11.57
2023-01-05T10:28:46.167Z,8.70
2023-01-05T10:31:23.272Z,8.55
2023-01-05T10:33:57.871Z,9.52
2023-01-05T10:37:07.819Z,11.57
2023-01-05T10:40:04.791Z,7.95
2023-01-05T10:42:46.454Z,11.90
2023-01-05T10:45:16.570Z,10.65
2023-01-05T10:47:46.545Z,10.65
2023-01-05T10:50:28.708Z,9.95
2023-01-05T10:52:59.328Z,13.63
2023-01-05T10:55:30.009Z,13.07
2023-01-05T10:57:58.119Z,17.30
2023-01-05T11:00:42.893Z,8.93
2023-01-05T11:03:15.948Z,9.13
2023-01-05T11:08:20.659Z,7.57
2023-01-05T11:10:54.225Z,9.05
2023-01-05T11:13:33.348Z,14.57
2023-01-05T11:16:13.930Z,8.38
2023-01-05T11:18:49.642Z,10.13
2023-01-05T11:21:19.765Z,12.32
2023-01-05T11:23:51.650Z,9.07
2023-01-05T11:26:32.303Z,9.18
2023-01-05T11:29:02.763Z,12.20
2023-01-05T11:31:36.430Z,9.00
2023-01-05T11:34:11.919Z,13.60
2023-01-05T11:36:41.258Z,11.27
2023-01-05T11:39:29.199Z,6.97
2023-01-05T11:42:12.393Z,4.68
2023-01-05T11:44:43.731Z,11.57
2023-01-05T11:47:21.119Z,12.82
2023-01-05T11:49:53.835Z,11.00
2023-01-05T11:52:35.559Z,15.73
2023-01-05T11:55:31.405Z,7.50
2023-01-05T11:58:14.045Z,13.50
2023-01-05T12:01:01.667Z,12.32
2023-01-05T12:04:02.713Z,21.27
2023-01-05T12:06:55.998Z,14.00
2023-01-05T12:09:34.370Z,12.77
2023-01-05T12:12:19.339Z,14.50
2023-01-05T12:15:03.344Z,12.77
2023-01-05T12:17:41.015Z,10.95
2023-01-05T12:20:23.586Z,9.18
2023-01-05T12:23:22.262Z,9.00
2023-01-05T12:25:57.387Z,8.98
2023-01-05T12:28:57.911Z,11.00
2023-01-05T12:35:01.889Z,9.63
2023-01-05T12:37:45.244Z,11.75
2023-01-05T12:43:01.710Z,12.13
2023-01-05T12:45:55.352Z,10.88
2023-01-05T12:48:30.187Z,14.23
2023-01-05T12:51:07.354Z,12.95
2023-01-05T12:53:45.262Z,11.23
2023-01-05T12:56:22.062Z,9.32
2023-01-05T12:59:04.837Z,10.75
2023-01-05T13:01:39.792Z,9.65
2023-01-05T13:04:18.240Z,18.85
2023-01-05T13:06:52.290Z,11.57
2023-01-05T13:09:23.476Z,10.95
2023-01-05T13:11:56.795Z,10.88
2023-01-05T13:14:29.497Z,13.25
2023-01-05T13:17:02.665Z,12.38
2023-01-05T13:19:36.136Z,15.00
2023-01-05T13:22:07.414Z,10.25
2023-01-05T13:24:40.926Z,8.40
2023-01-05T13:27:12.061Z,10.75
2023-01-05T13:29:45.247Z,14.77
2023-01-05T13:32:36.272Z,8.23
2023-01-05T13:35:35.902Z,10.95
2023-01-05T13:38:31.805Z,7.03
2023-01-05T13:41:17.391Z,9.85
2023-01-05T13:44:31.145Z,12.05
2023-01-05T13:47:29.313Z,11.10
2023-01-05T13:50:28.810Z,8.50
2023-01-05T13:53:10.782Z,7.57
2023-01-05T13:55:46.837Z,7.35
2023-01-05T14:01:06.086Z,15.10
2023-01-05T14:03:39.089Z,14.85
2023-01-05T14:06:17.472Z,13.95
2023-01-05T14:08:51.826Z,12.75
2023-01-05T14:11:21.780Z,13.23
2023-01-05T14:13:52.734Z,13.15
2023-01-05T14:16:49.502Z,11.98
2023-01-05T14:19:26.118Z,11.95
2023-01-05T14:22:05.384Z,9.88
2023-01-05T14:24:36.722Z,13.73
2023-01-05T14:27:07.857Z,11.13
2023-01-05T14:30:21.511Z,10.85
2023-01-05T14:32:55.441Z,12.38
2023-01-05T14:35:37.182Z,13.82
2023-01-05T14:38:16.189Z,14.70
2023-01-05T14:40:48.960Z,8.98
2023-01-05T14:43:32.159Z,13.70
2023-01-05T14:46:11.316Z,13.75
2023-01-05T14:48:42.488Z,13.98
2023-01-05T14:51:18.792Z,12.13
2023-01-05T14:53:49.490Z,9.60
2023-01-05T14:56:21.307Z,10.02
2023-01-05T14:59:19.751Z,19.02
2023-01-05T15:01:52.615Z,8.68
2023-01-05T15:04:23.790Z,14.40
2023-01-05T15:07:13.739Z,9.85
2023-01-05T15:10:11.031Z,7.82
2023-01-05T15:13:04.052Z,10.23
2023-01-05T15:15:48.623Z,12.55
2023-01-05T15:18:48.201Z,13.60
2023-01-05T15:21:31.639Z,9.02
2023-01-05T15:24:44.657Z,8.70
2023-01-05T15:27:34.361Z,14.93
2023-01-05T15:30:20.003Z,15.13
2023-01-05T15:32:55.069Z,7.28
2023-01-05T15:35:30.999Z,12.93
2023-01-05T15:38:14.720Z,11.38
2023-01-05T15:40:42.617Z,9.13
2023-01-05T15:43:17.273Z,14.93
2023-01-05T15:45:51.431Z,10.65
2023-01-05T15:48:26.603Z,9.35
2023-01-05T15:50:57.126Z,10.85
2023-01-05T15:53:27.903Z,13.73
2023-01-05T15:55:57.066Z,13.63
2023-01-05T15:58:28.206Z,8.80
2023-01-05T16:01:07.906Z,9.25
2023-01-05T16:03:38.332Z,11.65
2023-01-05T16:06:09.872Z,12.82
2023-01-05T16:08:43.004Z,10.57
2023-01-05T16:13:49.914Z,11.80
2023-01-05T16:16:49.888Z,16.45
2023-01-05T16:19:13.605Z,9.30
2023-01-05T16:21:43.721Z,8.07
2023-01-05T16:24:18.328Z,11.15
2023-01-05T16:26:46.600Z,12.55
2023-01-05T16:29:29.598Z,9.25
2023-01-05T16:31:57.998Z,10.02
2023-01-05T16:34:29.467Z,10.40
2023-01-05T16:37:05.983Z,11.00
2023-01-05T16:39:37.673Z,8.85
2023-01-05T16:42:25.020Z,11.95
2023-01-05T16:44:55.654Z,11.15
2023-01-05T16:47:36.308Z,9.10
2023-01-05T16:50:34.172Z,9.57
2023-01-05T16:53:10.370Z,12.45
2023-01-05T16:55:39.777Z,9.95
2023-01-05T16:58:39.399Z,12.25
2023-01-05T17:01:25.075Z,12.95
2023-01-05T17:03:53.601Z,8.45
2023-01-05T17:06:29.566Z,11.70
2023-01-05T17:09:00.097Z,11.95
2023-01-05T17:11:31.652Z,12.57
2023-01-05T17:14:00.209Z,8.45
2023-01-05T17:16:29.574Z,8.55
2023-01-05T17:19:00.660Z,13.25
2023-01-05T17:21:33.486Z,11.43
2023-01-05T17:24:02.188Z,12.88
2023-01-05T17:26:33.582Z,14.32
2023-01-05T17:29:04.684Z,10.07
2023-01-05T17:31:34.277Z,8.63
2023-01-05T17:34:03.059Z,12.10
2023-01-05T17:36:33.860Z,12.68
2023-01-05T17:39:02.309Z,15.48
2023-01-05T17:41:30.565Z,11.40
2023-01-05T17:43:58.600Z,9.95
2023-01-05T17:46:31.330Z,9.15
2023-01-05T17:49:01.060Z,9.40
2023-01-05T17:51:29.490Z,9.85
2023-01-05T17:54:01.414Z,12.73
2023-01-05T17:56:29.518Z,15.18
2023-01-05T17:58:57.861Z,9.30
2023-01-05T18:01:26.084Z,9.02
2023-01-05T18:03:54.138Z,8.45
2023-01-05T18:06:23.609Z,10.00
2023-01-05T18:08:51.828Z,10.98
2023-01-05T18:11:19.866Z,11.68
2023-01-05T18:13:47.832Z,11.05
2023-01-05T18:16:16.538Z,15.30
2023-01-05T18:18:44.828Z,15.35
2023-01-05T18:21:13.192Z,11.10
2023-01-05T18:23:42.448Z,15.80
2023-01-05T18:26:11.208Z,12.05
2023-01-05T18:28:39.203Z,9.07
2023-01-05T18:31:12.238Z,9.45
2023-01-05T18:33:40.126Z,9.60
2023-01-05T18:36:12.751Z,13.32
2023-01-05T18:38:42.818Z,16.17
2023-01-05T18:41:11.792Z,10.10
2023-01-05T18:43:40.219Z,11.63
2023-01-05T18:46:08.234Z,9.73
2023-01-05T18:48:36.230Z,8.20
2023-01-05T18:51:08.162Z,9.32
2023-01-05T18:53:38.746Z,12.32
2023-01-05T18:56:10.529Z,10.88
2023-01-05T18:58:38.672Z,12.48
2023-01-05T19:01:10.693Z,12.27
2023-01-05T19:03:39.073Z,9.20
2023-01-05T19:06:09.421Z,8.80
2023-01-05T19:08:38.682Z,10.63
2023-01-05T19:11:16.862Z,11.95
2023-01-05T19:13:46.909Z,7.85
2023-01-05T19:16:16.003Z,12.43
2023-01-05T19:18:46.052Z,7.93
2023-01-05T19:21:14.153Z,9.80
2023-01-05T19:23:42.530Z,7.05
2023-01-05T19:26:11.192Z,8.35
2023-01-05T19:28:41.524Z,9.15
2023-01-05T19:31:12.867Z,8.32
2023-01-05T19:33:42.636Z,6.57
2023-01-05T19:36:14.572Z,9.05
2023-01-05T19:38:43.571Z,4.10
2023-01-05T19:41:15.041Z,9.95
2023-01-05T19:43:47.947Z,3.97
2023-01-05T19:46:17.701Z,6.05
2023-01-05T19:48:46.810Z,7.40
2023-01-05T19:51:16.446Z,7.85
2023-01-05T19:53:45.994Z,7.93
2023-01-05T19:56:19.018Z,3.45
2023-01-05T19:58:53.385Z,3.30
2023-01-05T20:01:22.087Z,3.45
2023-01-05T20:03:50.681Z,6.30
2023-01-05T20:06:20.489Z,5.72
2023-01-05T20:08:52.679Z,4.15
2023-01-05T20:11:35.849Z,5.40
2023-01-05T20:16:35.239Z,6.10
2023-01-05T20:19:04.030Z,6.53
2023-01-05T20:21:32.670Z,8.48
2023-01-05T20:24:02.061Z,4.05
2023-01-05T20:26:31.698Z,9.40
2023-01-05T20:29:01.584Z,6.35
2023-01-05T20:31:33.262Z,4.85
2023-01-05T20:34:03.126Z,3.88
2023-01-05T20:36:31.615Z,5.50
2023-01-05T20:39:00.796Z,7.80
2023-01-05T20:41:30.494Z,8.05
2023-01-05T20:43:59.662Z,6.10
2023-01-05T20:46:29.689Z,7.55
2023-01-05T20:48:59.265Z,5.40
2023-01-05T20:51:27.738Z,4.35
2023-01-05T20:53:58.342Z,9.60
2023-01-05T20:56:33.100Z,6.35
2023-01-05T20:59:01.718Z,5.70
2023-01-05T21:01:29.927Z,3.67
2023-01-05T21:03:59.586Z,4.43
2023-01-05T21:06:28.574Z,6.35
2023-01-05T21:08:56.963Z,5.22
2023-01-05T21:11:26.165Z,6.22
2023-01-05T21:13:56.014Z,3.17
2023-01-05T21:16:27.335Z,5.60
2023-01-05T21:18:56.199Z,3.83
2023-01-05T21:21:27.010Z,5.60
2023-01-05T21:23:56.195Z,6.75
2023-01-05T21:26:24.716Z,6.90
2023-01-05T21:28:54.357Z,5.15
2023-01-05T21:31:25.225Z,4.43
2023-01-05T21:33:54.461Z,4.05
2023-01-05T21:36:24.643Z,3.65
2023-01-05T21:39:02.521Z,4.55
2023-01-05T21:41:49.582Z,5.13
2023-01-05T21:44:18.278Z,8.60
2023-01-05T21:46:47.348Z,4.72
2023-01-05T21:49:15.684Z,6.03
2023-01-05T21:52:00.815Z,5.22
2023-01-05T21:54:48.285Z,5.10
2023-01-05T21:57:16.819Z,6.10
2023-01-05T21:59:48.553Z,5.60
2023-01-05T22:02:19.829Z,6.43
2023-01-05T22:04:47.931Z,7.03
2023-01-05T22:07:20.378Z,4.47
2023-01-05T22:09:51.443Z,3.90
2023-01-05T22:12:20.129Z,3.47
2023-01-05T22:14:48.351Z,7.28
2023-01-05T22:17:16.736Z,5.35
2023-01-05T22:19:44.820Z,6.10
2023-01-05T22:22:13.307Z,7.20
2023-01-05T22:24:43.058Z,4.25
2023-01-05T22:27:12.645Z,5.65
2023-01-05T22:29:42.520Z,4.20
2023-01-05T22:32:10.632Z,3.70
2023-01-05T22:34:44.416Z,7.95
2023-01-05T22:37:12.348Z,5.75
2023-01-05T22:39:40.986Z,5.85
2023-01-05T22:42:09.536Z,5.50
2023-01-05T22:44:39.257Z,5.78
2023-01-05T22:47:07.531Z,6.13
2023-01-05T22:49:35.568Z,6.32
2023-01-05T22:52:03.933Z,7.03
2023-01-05T22:54:33.945Z,7.82
2023-01-05T22:57:05.253Z,9.23
2023-01-05T22:59:33.991Z,7.35
2023-01-05T23:02:03.369Z,7.07
2023-01-05T23:04:31.505Z,7.28
2023-01-05T23:06:59.683Z,5.80
2023-01-05T23:09:27.663Z,9.30
2023-01-05T23:11:56.194Z,9.25
2023-01-05T23:14:24.307Z,6.30
2023-01-05T23:16:52.376Z,8.70
2023-01-05T23:19:23.264Z,7.28
2023-01-05T23:21:51.311Z,11.00
2023-01-05T23:24:19.380Z,8.15
2023-01-05T23:26:50.153Z,9.63
2023-01-05T23:29:18.689Z,10.60
2023-01-05T23:31:46.719Z,9.70
2023-01-05T23:34:15.403Z,9.40
2023-01-05T23:36:45.150Z,8.77
2023-01-05T23:39:14.150Z,7.82
2023-01-05T23:41:42.450Z,9.80
2023-01-05T23:44:11.981Z,8.27
2023-01-05T23:46:40.182Z,8.32
2023-01-05T23:49:08.690Z,12.07
2023-01-05T23:51:37.197Z,10.07
2023-01-05T23:54:07.119Z,10.27
2023-01-05T23:56:35.644Z,12.63
2023-01-05T23:59:06.291Z,9.07
